KBWI/BWI METAR and TAF weather

Enter ICAO airport designator
Station Type Date Time Source
KBWI METAR 2020/02/16 19:54 UTC NOAA

KBWI 161954Z 21005KT 10SM FEW120 SCT160 BKN210 12/M05 A3009 RMK AO2 SLP189 T01171050


Station Type Date Time Source
KBWI Decoded METAR 2020/02/16 19:54 UTC NOAA

BALTIMORE-WASHINGTON INTERNATIONAL , MD, United States (KBWI) 39-10N 076-41W 59M
Feb 16, 2020 - 02:54 PM EST / 2020.02.16 1954 UTC
Wind: from the SSW (210 degrees) at 6 MPH (5 KT):0
Visibility: 10 mile(s):0
Sky conditions: mostly cloudy
Temperature: 53.1 F (11.7 C)
Dew Point: 23.0 F (-5.0 C)
Relative Humidity: 30%
Pressure (altimeter): 30.09 in. Hg (1018 hPa)
ob: KBWI 161954Z 21005KT 10SM FEW120 SCT160 BKN210 12/M05 A3009 RMK AO2 SLP189 T01171050
cycle: 20

Station Type Date Time Source
KBWI TAF 2020/02/16 18:30 UTC NOAA

TAF KBWI 161728Z 1618/1724 22004KT P6SM SCT110 BKN210
FM162000 19004KT P6SM BKN120
FM171100 35005KT P6SM SCT060

Example: see airport list